createdAt,value
2023-09-03T00:01:14.631Z,100004.16
2023-09-03T00:03:49.442Z,100018.13
2023-09-03T00:06:18.494Z,100024.22
2023-09-03T00:08:58.141Z,100017.41
2023-09-03T00:11:27.051Z,100019.56
2023-09-03T00:14:01.156Z,100026.41
2023-09-03T00:16:31.704Z,100028.31
2023-09-03T00:19:02.053Z,100035.28
2023-09-03T00:21:31.052Z,100036.47
2023-09-03T00:24:02.725Z,100018.66
2023-09-03T00:26:45.416Z,100031.59
2023-09-03T00:29:21.533Z,100033.50
2023-09-03T00:31:56.357Z,100027.31
2023-09-03T00:34:30.543Z,100023.56
2023-09-03T00:37:17.039Z,100025.69
2023-09-03T00:39:53.787Z,100034.97
2023-09-03T00:42:23.069Z,100035.59
2023-09-03T00:44:55.066Z,100031.78
2023-09-03T00:47:25.490Z,100034.72
2023-09-03T00:50:02.078Z,100032.00
2023-09-03T00:52:30.648Z,100032.66
2023-09-03T00:54:59.816Z,100034.13
2023-09-03T00:57:30.438Z,100040.34
2023-09-03T01:00:06.747Z,100029.72
2023-09-03T01:02:41.067Z,100035.16
2023-09-03T01:05:11.141Z,100032.88
2023-09-03T01:07:45.298Z,100032.88
2023-09-03T01:10:19.620Z,100037.19
2023-09-03T01:12:55.360Z,100029.13
2023-09-03T01:15:31.497Z,100022.84
2023-09-03T01:18:23.272Z,100028.47
2023-09-03T01:21:06.168Z,100020.84
2023-09-03T01:23:42.613Z,100025.56
2023-09-03T01:26:22.001Z,100029.84
2023-09-03T01:28:53.701Z,100025.91
2023-09-03T01:31:24.546Z,100017.72
2023-09-03T01:33:53.878Z,100022.34
2023-09-03T01:36:24.877Z,100035.16
2023-09-03T01:39:05.306Z,100030.88
2023-09-03T01:41:39.140Z,100031.56
2023-09-03T01:44:24.024Z,100019.53
2023-09-03T01:46:55.439Z,100024.56
2023-09-03T01:49:36.632Z,100029.84
2023-09-03T01:52:15.209Z,100025.59
2023-09-03T01:54:51.232Z,100031.94
2023-09-03T01:57:26.979Z,100033.22
2023-09-03T02:00:00.696Z,100043.69
2023-09-03T02:02:32.207Z,100041.81
2023-09-03T02:05:08.596Z,100045.69
2023-09-03T02:07:40.299Z,100060.63
2023-09-03T02:10:09.840Z,100058.88
2023-09-03T02:12:47.012Z,100056.63
2023-09-03T02:15:31.856Z,100059.56
2023-09-03T02:18:04.512Z,100058.44
2023-09-03T02:20:33.415Z,100059.22
2023-09-03T02:23:07.188Z,100063.94
2023-09-03T02:25:36.311Z,100065.25
2023-09-03T02:28:17.617Z,100059.22
2023-09-03T02:31:03.083Z,100057.50
2023-09-03T02:33:33.987Z,100061.06
2023-09-03T02:36:16.714Z,100075.75
2023-09-03T02:38:48.317Z,100071.03
2023-09-03T02:41:19.590Z,100072.81
2023-09-03T02:43:53.982Z,100071.22
2023-09-03T02:46:26.529Z,100069.63
2023-09-03T02:48:58.916Z,100072.81
2023-09-03T02:54:16.788Z,100078.16
2023-09-03T02:56:49.624Z,100079.75
2023-09-03T02:59:23.790Z,100077.81
2023-09-03T03:01:54.806Z,100085.34
2023-09-03T03:04:23.284Z,100087.41
2023-09-03T03:06:54.405Z,100081.19
2023-09-03T03:09:25.004Z,100083.81
2023-09-03T03:11:54.324Z,100076.81
2023-09-03T03:14:24.701Z,100072.63
2023-09-03T03:17:06.822Z,100079.84
2023-09-03T03:19:36.103Z,100090.78
2023-09-03T03:22:10.501Z,100088.28
2023-09-03T03:24:47.692Z,100091.06
2023-09-03T03:27:21.220Z,100092.81
2023-09-03T03:29:53.553Z,100103.00
2023-09-03T03:32:26.382Z,100101.47
2023-09-03T03:35:00.205Z,100090.13
2023-09-03T03:37:28.545Z,100078.22
2023-09-03T03:39:56.782Z,100090.50
2023-09-03T03:42:25.349Z,100089.25
2023-09-03T03:45:02.952Z,100084.28
2023-09-03T03:47:45.903Z,100094.09
2023-09-03T03:50:25.672Z,100103.28
2023-09-03T03:53:04.677Z,100097.84
2023-09-03T03:55:43.954Z,100100.09
2023-09-03T03:58:14.740Z,100104.03
2023-09-03T04:00:45.232Z,100110.31
2023-09-03T04:03:16.458Z,100109.13
2023-09-03T04:06:06.656Z,100116.03
2023-09-03T04:08:38.426Z,100113.78
2023-09-03T04:11:09.038Z,100120.16
2023-09-03T04:13:40.387Z,100116.69
2023-09-03T04:16:11.421Z,100121.97
2023-09-03T04:18:47.659Z,100116.75
2023-09-03T04:21:17.460Z,100119.56
2023-09-03T04:23:57.174Z,100108.53
2023-09-03T04:26:26.893Z,100108.16
2023-09-03T04:29:09.044Z,100105.69
2023-09-03T04:31:44.487Z,100104.53
2023-09-03T04:34:26.488Z,100105.31
2023-09-03T04:36:58.204Z,100114.81
2023-09-03T04:39:27.594Z,100111.25
2023-09-03T04:42:01.810Z,100116.88
2023-09-03T04:44:30.350Z,100106.84
2023-09-03T04:46:59.348Z,100134.53
2023-09-03T04:49:32.261Z,100157.72
2023-09-03T04:52:02.738Z,100167.09
2023-09-03T04:54:43.991Z,100162.84
2023-09-03T04:57:21.035Z,100143.94
2023-09-03T04:59:54.039Z,100143.22
2023-09-03T05:02:26.384Z,100129.84
2023-09-03T05:05:02.266Z,100133.22
2023-09-03T05:07:31.785Z,100143.16
2023-09-03T05:10:04.168Z,100147.81
2023-09-03T05:12:35.511Z,100153.19
2023-09-03T05:15:05.106Z,100150.13
2023-09-03T05:17:36.176Z,100149.63
2023-09-03T05:20:10.048Z,100140.59
2023-09-03T05:22:42.310Z,100131.88
2023-09-03T05:25:11.414Z,100146.50
2023-09-03T05:27:45.559Z,100149.28
2023-09-03T05:30:18.659Z,100156.22
2023-09-03T05:32:48.274Z,100170.50
2023-09-03T05:35:21.326Z,100174.13
2023-09-03T05:37:52.319Z,100172.53
2023-09-03T05:40:20.956Z,100176.81
2023-09-03T05:42:57.324Z,100174.06
2023-09-03T05:45:27.814Z,100170.50
2023-09-03T05:47:57.449Z,100158.00
2023-09-03T05:50:35.595Z,100173.81
2023-09-03T05:53:13.637Z,100170.44
2023-09-03T05:55:51.037Z,100182.00
2023-09-03T05:58:19.477Z,100188.94
2023-09-03T06:00:50.989Z,100189.25
2023-09-03T06:03:21.720Z,100190.63
2023-09-03T06:05:56.467Z,100191.69
2023-09-03T06:08:25.917Z,100205.91
2023-09-03T06:10:57.656Z,100205.63
2023-09-03T06:13:35.375Z,100194.13
2023-09-03T06:16:06.593Z,100205.72
2023-09-03T06:18:38.119Z,100219.34
2023-09-03T06:21:13.032Z,100223.59
2023-09-03T06:23:49.682Z,100222.78
2023-09-03T06:26:19.757Z,100222.47
2023-09-03T06:28:56.745Z,100212.31
2023-09-03T06:31:25.625Z,100211.06
2023-09-03T06:34:10.434Z,100204.94
2023-09-03T06:36:53.874Z,100212.91
2023-09-03T06:39:27.752Z,100217.91
2023-09-03T06:42:05.088Z,100204.28
2023-09-03T06:44:35.346Z,100211.19
2023-09-03T06:47:13.187Z,100215.75
2023-09-03T06:49:42.326Z,100219.91
2023-09-03T06:52:16.818Z,100225.06
2023-09-03T06:54:46.041Z,100226.31
2023-09-03T06:57:31.546Z,100226.19
2023-09-03T07:00:13.584Z,100225.78
2023-09-03T07:02:43.315Z,100228.31
2023-09-03T07:05:11.944Z,100221.06
2023-09-03T07:07:46.054Z,100235.50
2023-09-03T07:10:22.474Z,100223.69
2023-09-03T07:12:56.512Z,100220.03
2023-09-03T07:15:24.698Z,100214.91
2023-09-03T07:17:56.749Z,100210.69
2023-09-03T07:20:25.664Z,100228.91
2023-09-03T07:23:09.566Z,100232.63
2023-09-03T07:25:38.623Z,100224.41
2023-09-03T07:28:13.822Z,100225.13
2023-09-03T07:30:54.353Z,100230.09
2023-09-03T07:33:25.102Z,100221.25
2023-09-03T07:35:54.047Z,100234.31
2023-09-03T07:38:26.717Z,100237.47
2023-09-03T07:41:03.145Z,100241.72
2023-09-03T07:43:34.387Z,100243.38
2023-09-03T07:46:08.532Z,100250.06
2023-09-03T07:48:38.775Z,100259.91
2023-09-03T07:51:16.376Z,100265.63
2023-09-03T07:53:51.593Z,100261.06
2023-09-03T07:56:21.082Z,100264.75
2023-09-03T07:58:50.176Z,100273.03
2023-09-03T08:01:21.989Z,100273.28
2023-09-03T08:03:52.134Z,100273.69
2023-09-03T08:06:21.485Z,100271.50
2023-09-03T08:08:55.524Z,100283.63
2023-09-03T08:11:34.198Z,100282.59
2023-09-03T08:14:02.952Z,100278.00
2023-09-03T08:16:33.734Z,100285.72
2023-09-03T08:19:04.826Z,100288.88
2023-09-03T08:21:36.727Z,100295.59
2023-09-03T08:24:10.852Z,100284.41
2023-09-03T08:26:40.253Z,100282.69
2023-09-03T08:29:10.129Z,100278.78
2023-09-03T08:31:42.341Z,100280.84
2023-09-03T08:34:16.022Z,100288.50
2023-09-03T08:36:48.906Z,100289.97
2023-09-03T08:39:33.094Z,100302.19
2023-09-03T08:42:05.430Z,100306.75
2023-09-03T08:44:40.876Z,100300.50
2023-09-03T08:47:22.672Z,100301.41
2023-09-03T08:49:52.589Z,100301.69
2023-09-03T08:52:26.198Z,100307.88
2023-09-03T08:54:59.048Z,100308.31
2023-09-03T08:57:32.514Z,100308.59
2023-09-03T09:00:09.470Z,100307.09
2023-09-03T09:02:42.667Z,100316.59
2023-09-03T09:05:21.168Z,100307.69
2023-09-03T09:07:58.567Z,100319.91
2023-09-03T09:10:38.430Z,100321.97
2023-09-03T09:13:11.884Z,100321.88
2023-09-03T09:15:44.385Z,100303.94
2023-09-03T09:18:16.459Z,100321.56
2023-09-03T09:20:47.341Z,100313.41
2023-09-03T09:23:24.772Z,100316.13
2023-09-03T09:25:57.766Z,100315.44
2023-09-03T09:28:27.541Z,100297.78
2023-09-03T09:30:57.011Z,100310.00
2023-09-03T09:33:27.277Z,100317.28
2023-09-03T09:36:14.935Z,100326.59
2023-09-03T09:38:46.605Z,100324.00
2023-09-03T09:41:38.728Z,100314.94
2023-09-03T09:44:15.438Z,100310.75
2023-09-03T09:46:47.614Z,100315.69
2023-09-03T09:49:20.143Z,100320.22
2023-09-03T09:51:57.980Z,100319.69
2023-09-03T09:54:26.831Z,100316.16
2023-09-03T09:57:12.184Z,100313.28
2023-09-03T09:59:45.892Z,100313.78
2023-09-03T10:02:24.127Z,100317.00
2023-09-03T10:04:58.783Z,100313.47
2023-09-03T10:07:37.141Z,100315.34
2023-09-03T10:10:07.518Z,100308.44
2023-09-03T10:12:39.705Z,100296.66
2023-09-03T10:15:10.700Z,100295.19
2023-09-03T10:17:48.230Z,100298.84
2023-09-03T10:20:28.988Z,100301.41
2023-09-03T10:23:03.563Z,100303.50
2023-09-03T10:25:35.462Z,100310.00
2023-09-03T10:28:13.694Z,100306.88
2023-09-03T10:30:50.960Z,100307.69
2023-09-03T10:33:28.330Z,100296.44
2023-09-03T10:36:17.415Z,100301.84
2023-09-03T10:38:48.415Z,100298.53
2023-09-03T10:41:28.697Z,100282.97
2023-09-03T10:44:25.104Z,100288.66
2023-09-03T10:47:07.011Z,100285.53
2023-09-03T10:49:48.441Z,100294.16
2023-09-03T10:52:41.699Z,100290.38
2023-09-03T10:55:14.661Z,100299.38
2023-09-03T10:57:52.444Z,100293.50
2023-09-03T11:00:26.051Z,100304.00
2023-09-03T11:03:25.073Z,100306.75
2023-09-03T11:06:26.072Z,100306.97
2023-09-03T11:09:30.580Z,100307.78
2023-09-03T11:12:11.391Z,100312.63
2023-09-03T11:14:45.548Z,100311.78
2023-09-03T11:20:50.982Z,100308.88
2023-09-03T11:23:32.561Z,100308.22
2023-09-03T11:26:07.580Z,100316.41
2023-09-03T11:28:43.128Z,100304.00
2023-09-03T11:31:22.604Z,100309.25
2023-09-03T11:33:59.712Z,100307.78
2023-09-03T11:36:34.413Z,100302.31
2023-09-03T11:39:11.522Z,100293.91
2023-09-03T11:41:49.723Z,100293.72
2023-09-03T11:44:30.434Z,100301.72
2023-09-03T11:47:21.853Z,100293.06
2023-09-03T11:50:01.968Z,100292.34
2023-09-03T11:52:46.805Z,100300.00
2023-09-03T11:55:28.428Z,100302.06
2023-09-03T11:58:08.061Z,100293.00
2023-09-03T12:00:49.068Z,100292.84
2023-09-03T12:03:25.357Z,100292.66
2023-09-03T12:06:01.344Z,100299.53
2023-09-03T12:08:38.729Z,100294.22
2023-09-03T12:11:16.064Z,100298.81
2023-09-03T12:14:00.791Z,100294.81
2023-09-03T12:16:42.941Z,100296.91
2023-09-03T12:19:25.929Z,100296.31
2023-09-03T12:22:14.325Z,100291.34
2023-09-03T12:24:51.576Z,100294.50
2023-09-03T12:27:29.367Z,100295.13
2023-09-03T12:30:10.459Z,100295.25
2023-09-03T12:32:53.761Z,100294.47
2023-09-03T12:35:27.485Z,100299.66
2023-09-03T12:38:08.722Z,100290.94
2023-09-03T12:40:42.440Z,100271.66
2023-09-03T12:43:16.631Z,100276.06
2023-09-03T12:45:49.201Z,100273.09
2023-09-03T12:48:27.480Z,100278.06
2023-09-03T12:51:09.096Z,100275.78
2023-09-03T12:53:48.857Z,100270.09
2023-09-03T12:56:29.944Z,100269.63
2023-09-03T12:59:11.825Z,100282.00
2023-09-03T13:01:46.794Z,100270.44
2023-09-03T13:04:22.503Z,100272.34
2023-09-03T13:07:06.404Z,100262.91
2023-09-03T13:09:50.988Z,100262.69
2023-09-03T13:12:35.596Z,100259.88
2023-09-03T13:15:07.624Z,100256.81
2023-09-03T13:18:01.100Z,100258.19
2023-09-03T13:20:40.985Z,100263.16
2023-09-03T13:23:16.997Z,100246.06
2023-09-03T13:26:01.085Z,100247.63
2023-09-03T13:28:36.716Z,100234.19
2023-09-03T13:31:17.794Z,100244.13
2023-09-03T13:33:56.350Z,100230.97
2023-09-03T13:36:32.954Z,100252.97
2023-09-03T13:39:22.404Z,100250.91
2023-09-03T13:42:23.070Z,100253.50
2023-09-03T13:44:56.860Z,100250.53
2023-09-03T13:47:29.189Z,100243.63
2023-09-03T13:50:12.657Z,100234.66
2023-09-03T13:52:47.882Z,100237.16
2023-09-03T13:55:42.339Z,100231.44
2023-09-03T13:58:30.066Z,100228.81
2023-09-03T14:01:05.127Z,100221.69
2023-09-03T14:03:42.975Z,100221.00
2023-09-03T14:06:24.420Z,100212.50
2023-09-03T14:09:06.724Z,100228.16
2023-09-03T14:11:43.998Z,100218.72
2023-09-03T14:14:33.145Z,100211.91
2023-09-03T14:17:11.456Z,100214.63
2023-09-03T14:19:50.010Z,100203.47
2023-09-03T14:22:36.814Z,100200.19
2023-09-03T14:25:21.962Z,100203.47
2023-09-03T14:28:00.089Z,100200.19
2023-09-03T14:30:40.573Z,100202.53
2023-09-03T14:33:18.597Z,100205.56
2023-09-03T14:35:53.876Z,100208.25
2023-09-03T14:38:31.015Z,100201.34
2023-09-03T14:41:10.938Z,100208.41
2023-09-03T14:43:49.237Z,100198.78
2023-09-03T14:46:24.437Z,100204.84
2023-09-03T14:48:55.849Z,100206.63
2023-09-03T14:51:37.153Z,100203.75
2023-09-03T14:54:18.788Z,100213.09
2023-09-03T14:56:51.678Z,100202.66
2023-09-03T14:59:25.543Z,100194.63
2023-09-03T15:02:03.953Z,100205.84
2023-09-03T15:04:47.419Z,100193.91
2023-09-03T15:07:27.951Z,100192.38
2023-09-03T15:10:04.027Z,100193.94
2023-09-03T15:12:50.072Z,100199.41
2023-09-03T15:15:23.243Z,100200.38
2023-09-03T15:18:02.063Z,100203.97
2023-09-03T15:20:45.562Z,100198.28
2023-09-03T15:23:22.230Z,100195.88
2023-09-03T15:26:00.605Z,100197.84
2023-09-03T15:28:42.140Z,100195.59
2023-09-03T15:31:14.931Z,100189.72
2023-09-03T15:33:49.492Z,100196.78
2023-09-03T15:36:30.854Z,100187.22
2023-09-03T15:39:04.059Z,100192.03
2023-09-03T15:41:45.911Z,100194.44
2023-09-03T15:44:22.437Z,100201.97
2023-09-03T15:47:00.093Z,100203.56
2023-09-03T15:49:33.421Z,100207.78
2023-09-03T15:52:10.200Z,100206.69
2023-09-03T15:54:43.652Z,100202.72
2023-09-03T15:57:19.404Z,100207.47
2023-09-03T15:59:51.058Z,100201.78
2023-09-03T16:02:27.448Z,100219.44
2023-09-03T16:05:10.446Z,100209.22
2023-09-03T16:07:50.867Z,100207.25
2023-09-03T16:10:27.113Z,100209.03
2023-09-03T16:13:03.742Z,100215.94
2023-09-03T16:15:36.104Z,100217.19
2023-09-03T16:18:14.339Z,100231.09
2023-09-03T16:21:02.918Z,100227.97
2023-09-03T16:23:35.798Z,100236.78
2023-09-03T16:26:24.383Z,100234.50
2023-09-03T16:28:59.204Z,100232.00
2023-09-03T16:31:37.318Z,100237.44
2023-09-03T16:34:25.406Z,100230.28
2023-09-03T16:37:00.974Z,100232.84
2023-09-03T16:39:36.442Z,100227.38
2023-09-03T16:42:24.457Z,100239.34
2023-09-03T16:45:08.451Z,100237.06
2023-09-03T16:47:40.865Z,100241.44
2023-09-03T16:50:17.971Z,100238.94
2023-09-03T16:53:01.132Z,100236.81
2023-09-03T16:55:36.312Z,100231.00
2023-09-03T16:58:15.253Z,100236.41
2023-09-03T17:00:50.475Z,100239.41
2023-09-03T17:03:28.397Z,100243.78
2023-09-03T17:06:11.046Z,100240.38
2023-09-03T17:08:47.600Z,100236.03
2023-09-03T17:11:29.073Z,100245.28
2023-09-03T17:14:05.358Z,100248.69
2023-09-03T17:16:41.722Z,100249.88
2023-09-03T17:19:28.232Z,100254.31
2023-09-03T17:22:03.183Z,100249.91
2023-09-03T17:24:39.537Z,100245.91
2023-09-03T17:27:34.595Z,100258.72
2023-09-03T17:30:18.915Z,100268.16
2023-09-03T17:33:01.778Z,100275.72
2023-09-03T17:35:33.130Z,100278.44
2023-09-03T17:38:20.262Z,100292.94
2023-09-03T17:40:54.036Z,100304.84
2023-09-03T17:43:34.732Z,100312.63
2023-09-03T17:46:09.087Z,100314.31
2023-09-03T17:48:44.190Z,100321.41
2023-09-03T17:51:21.264Z,100329.88
2023-09-03T17:53:59.879Z,100329.03
2023-09-03T17:56:42.630Z,100328.53
2023-09-03T17:59:26.270Z,100326.44
2023-09-03T18:02:00.023Z,100328.28
2023-09-03T18:04:59.387Z,100324.25
2023-09-03T18:08:00.029Z,100312.66
2023-09-03T18:10:37.111Z,100320.44
2023-09-03T18:13:27.268Z,100316.44
2023-09-03T18:16:01.799Z,100321.44
2023-09-03T18:18:57.710Z,100322.09
2023-09-03T18:21:32.287Z,100328.09
2023-09-03T18:24:08.270Z,100330.44
2023-09-03T18:26:44.750Z,100332.56
2023-09-03T18:29:39.630Z,100336.81
2023-09-03T18:32:26.814Z,100344.78
2023-09-03T18:35:06.546Z,100346.97
2023-09-03T18:37:59.465Z,100352.31
2023-09-03T18:40:38.926Z,100355.31
2023-09-03T18:43:26.374Z,100356.97
2023-09-03T18:46:22.697Z,100363.34
2023-09-03T18:49:04.431Z,100363.63
2023-09-03T18:51:53.222Z,100369.00
2023-09-03T18:54:30.207Z,100364.56
2023-09-03T18:57:06.005Z,100373.22
2023-09-03T18:59:42.304Z,100375.81
2023-09-03T19:02:49.441Z,100375.13
2023-09-03T19:05:53.652Z,100375.41
2023-09-03T19:08:36.200Z,100378.34
2023-09-03T19:11:34.830Z,100377.84
2023-09-03T19:14:08.302Z,100368.50
2023-09-03T19:16:55.918Z,100380.00
2023-09-03T19:19:43.651Z,100381.94
2023-09-03T19:22:31.487Z,100372.16
2023-09-03T19:28:34.907Z,100378.94
2023-09-03T19:31:06.951Z,100379.00
2023-09-03T19:33:43.285Z,100379.97
2023-09-03T19:36:23.634Z,100392.50
2023-09-03T19:39:12.311Z,100391.47
2023-09-03T19:41:47.378Z,100391.72
2023-09-03T19:44:22.552Z,100398.31
2023-09-03T19:47:05.643Z,100390.13
2023-09-03T19:52:36.934Z,100412.28
2023-09-03T19:55:33.709Z,100420.56
2023-09-03T19:58:27.501Z,100420.19
2023-09-03T20:01:29.297Z,100415.16
2023-09-03T20:04:14.700Z,100422.03
2023-09-03T20:06:56.993Z,100422.53
2023-09-03T20:09:40.378Z,100419.69
2023-09-03T20:12:18.151Z,100423.81
2023-09-03T20:15:10.697Z,100426.69
2023-09-03T20:17:43.867Z,100430.53
2023-09-03T20:20:25.221Z,100428.25
2023-09-03T20:23:01.315Z,100423.66
2023-09-03T20:25:34.439Z,100425.84
2023-09-03T20:28:13.740Z,100428.25
2023-09-03T20:30:49.992Z,100422.69
2023-09-03T20:33:28.896Z,100432.38
2023-09-03T20:36:15.317Z,100424.66
2023-09-03T20:38:48.763Z,100443.38
2023-09-03T20:41:38.522Z,100444.69
2023-09-03T20:44:21.291Z,100443.56
2023-09-03T20:46:57.491Z,100438.91
2023-09-03T20:49:33.061Z,100446.03
2023-09-03T20:52:11.883Z,100441.75
2023-09-03T20:54:43.321Z,100436.00
2023-09-03T20:57:21.649Z,100438.91
2023-09-03T20:59:56.137Z,100445.06
2023-09-03T21:02:27.594Z,100427.72
2023-09-03T21:05:09.002Z,100428.66
2023-09-03T21:07:38.880Z,100424.69
2023-09-03T21:10:11.838Z,100426.44
2023-09-03T21:12:52.743Z,100425.28
2023-09-03T21:15:24.197Z,100434.84
2023-09-03T21:17:53.724Z,100433.25
2023-09-03T21:20:24.425Z,100442.41
2023-09-03T21:22:55.810Z,100433.53
2023-09-03T21:25:28.119Z,100441.25
2023-09-03T21:28:01.463Z,100439.91
2023-09-03T21:30:33.578Z,100443.09
2023-09-03T21:33:02.766Z,100462.63
2023-09-03T21:35:34.129Z,100459.50
2023-09-03T21:38:05.843Z,100460.88
2023-09-03T21:40:37.309Z,100452.34
2023-09-03T21:43:09.746Z,100479.81
2023-09-03T21:45:41.763Z,100492.16
2023-09-03T21:48:13.006Z,100482.97
2023-09-03T21:50:42.685Z,100486.25
2023-09-03T21:53:10.958Z,100475.78
2023-09-03T21:55:42.662Z,100468.09
2023-09-03T21:58:14.957Z,100473.66
2023-09-03T22:00:43.036Z,100466.06
2023-09-03T22:03:16.700Z,100460.53
2023-09-03T22:05:48.736Z,100467.06
2023-09-03T22:08:20.012Z,100469.44
2023-09-03T22:10:50.058Z,100468.03
2023-09-03T22:13:30.931Z,100460.06
2023-09-03T22:16:05.604Z,100468.63
2023-09-03T22:18:46.306Z,100462.91
2023-09-03T22:21:29.124Z,100470.56
2023-09-03T22:24:00.071Z,100460.75
2023-09-03T22:26:30.394Z,100460.09
2023-09-03T22:29:02.606Z,100460.94
2023-09-03T22:31:32.149Z,100464.78
2023-09-03T22:34:00.976Z,100460.38
2023-09-03T22:36:32.591Z,100452.44
2023-09-03T22:39:04.014Z,100449.91
2023-09-03T22:41:44.606Z,100444.19
2023-09-03T22:44:15.144Z,100449.34
2023-09-03T22:46:48.671Z,100438.94
2023-09-03T22:49:19.135Z,100447.59
2023-09-03T22:51:51.664Z,100450.84
2023-09-03T22:54:28.670Z,100453.56
2023-09-03T22:56:58.093Z,100452.63
2023-09-03T22:59:30.562Z,100457.72
2023-09-03T23:02:01.414Z,100469.47
2023-09-03T23:04:36.279Z,100462.22
2023-09-03T23:07:15.065Z,100470.34
2023-09-03T23:09:46.666Z,100461.19
2023-09-03T23:12:16.762Z,100456.22
2023-09-03T23:14:48.629Z,100445.88
2023-09-03T23:17:25.266Z,100444.16
2023-09-03T23:19:59.479Z,100451.06
2023-09-03T23:22:32.342Z,100445.88
2023-09-03T23:25:00.445Z,100445.97
2023-09-03T23:27:28.984Z,100456.72
2023-09-03T23:30:02.937Z,100464.44
2023-09-03T23:32:32.923Z,100472.91
2023-09-03T23:35:02.213Z,100474.25
2023-09-03T23:37:35.890Z,100481.00
2023-09-03T23:40:07.421Z,100482.19
2023-09-03T23:42:36.606Z,100487.81
2023-09-03T23:45:24.094Z,100482.09
2023-09-03T23:47:54.135Z,100465.84
2023-09-03T23:50:24.991Z,100475.63
2023-09-03T23:52:54.008Z,100478.03
2023-09-03T23:55:28.158Z,100473.16
2023-09-03T23:57:57.465Z,100478.13
